Time;durP1;ratioP1;P1;durP2;ratioP2;P2;SDS_P1;SDS_P2;PMS_P1;PMS_P2;Temp;Humidity;BMP_temperature;BMP_pressure;BME280_temperature;BME280_humidity;BME280_pressure;Samples;Min_cycle;Max_cycle;Signal;HPM_P1;HPM_P2
2022/10/03 00:00:09;;;;;;;7.28;1.30;;;10.90;99.90;;;;;;5046863;28;20021;-74
2022/10/03 00:03:12;;;;;;;9.30;1.38;;;11.10;99.90;;;;;;5031028;28;20037;-74
2022/10/03 00:06:01;;;;;;;8.27;1.67;;;11.00;99.90;;;;;;5046627;28;20146;-74
2022/10/03 00:08:35;;;;;;;1.85;1.10;;;11.00;99.90;;;;;;5044641;28;20600;-74
2022/10/03 00:11:29;;;;;;;18.00;1.83;;;11.00;99.90;;;;;;5043465;28;20087;-74
2022/10/03 00:14:20;;;;;;;3.97;1.48;;;11.00;99.90;;;;;;5037047;28;20036;-74
2022/10/03 00:17:09;;;;;;;9.48;1.95;;;11.00;99.90;;;;;;5042743;28;20029;-74
2022/10/03 00:20:03;;;;;;;9.02;1.42;;;11.10;99.90;;;;;;5037627;28;20274;-74
2022/10/03 00:22:53;;;;;;;9.88;1.38;;;11.00;99.90;;;;;;5040030;28;20017;-74
2022/10/03 00:25:44;;;;;;;6.00;1.55;;;11.10;99.90;;;;;;5045070;28;20032;-74
2022/10/03 00:28:38;;;;;;;6.65;1.50;;;11.10;99.90;;;;;;5039043;28;20040;-73
2022/10/03 00:31:24;;;;;;;4.38;1.20;;;11.10;99.90;;;;;;5041305;28;20048;-74
2022/10/03 00:34:14;;;;;;;10.82;2.22;;;11.10;99.90;;;;;;5039223;28;20034;-74
2022/10/03 00:37:06;;;;;;;6.25;1.88;;;11.10;99.90;;;;;;5048868;28;20073;-74
2022/10/03 00:39:39;;;;;;;4.00;0.75;;;11.10;99.90;;;;;;5045935;28;20029;-74
2022/10/03 00:42:06;;;;;;;9.32;1.48;;;10.90;99.90;;;;;;5048380;28;20426;-74
2022/10/03 00:44:48;;;;;;;8.43;1.30;;;10.90;99.90;;;;;;5043312;28;20104;-74
2022/10/03 00:47:42;;;;;;;8.13;1.52;;;10.80;99.90;;;;;;5042088;28;20167;-74
2022/10/03 00:50:47;;;;;;;8.13;1.80;;;10.70;99.90;;;;;;5043125;28;20029;-74
2022/10/03 00:53:40;;;;;;;9.05;2.08;;;10.70;99.90;;;;;;4958133;28;20039;-74
2022/10/03 00:56:17;;;;;;;6.95;1.58;;;10.70;99.90;;;;;;5044371;28;20230;-74
2022/10/03 00:58:51;;;;;;;5.85;1.52;;;10.60;99.90;;;;;;5043134;28;20037;-74
2022/10/03 01:01:37;;;;;;;5.10;1.27;;;10.60;99.90;;;;;;5037597;28;20037;-73
2022/10/03 01:04:29;;;;;;;7.97;2.67;;;10.70;99.90;;;;;;5039828;28;20033;-74
2022/10/03 01:07:01;;;;;;;7.88;1.30;;;10.70;99.90;;;;;;5039173;28;20400;-74
2022/10/03 01:09:47;;;;;;;9.25;1.50;;;10.70;99.90;;;;;;5042894;28;20040;-74
2022/10/03 01:12:47;;;;;;;9.93;1.20;;;10.80;99.90;;;;;;5038054;28;20044;-74
2022/10/03 01:15:30;;;;;;;13.23;1.40;;;10.90;99.90;;;;;;5041711;28;20029;-74
2022/10/03 01:18:12;;;;;;;9.88;1.58;;;11.00;99.90;;;;;;5043995;28;20195;-74
2022/10/03 01:20:57;;;;;;;;;;;11.10;99.90;;;;;;5046062;28;20387;-74
2022/10/03 01:23:57;;;;;;;7.32;1.77;;;11.20;99.90;;;;;;5037788;28;19915;-74
2022/10/03 01:26:55;;;;;;;8.07;1.88;;;11.20;99.90;;;;;;5022609;28;20061;-73
2022/10/03 01:32:24;;;;;;;2.25;1.17;;;11.20;99.90;;;;;;5043137;28;20043;-74
2022/10/03 01:35:08;;;;;;;2.50;1.17;;;11.30;99.90;;;;;;5039261;28;20032;-73
2022/10/03 01:37:58;;;;;;;7.85;2.05;;;11.40;99.90;;;;;;5035177;28;20061;-74
2022/10/03 01:40:46;;;;;;;9.90;2.20;;;11.40;99.90;;;;;;5032283;28;20017;-74
2022/10/03 01:43:22;;;;;;;6.93;1.92;;;11.40;99.90;;;;;;5041009;28;20021;-74
2022/10/03 01:46:03;;;;;;;10.82;1.75;;;11.30;99.90;;;;;;5038852;28;20026;-74
2022/10/03 01:48:51;;;;;;;4.32;1.20;;;11.40;99.90;;;;;;5040236;28;20033;-74
2022/10/03 01:51:23;;;;;;;5.18;1.30;;;11.40;99.90;;;;;;5038604;28;20037;-74
2022/10/03 01:53:57;;;;;;;5.50;1.45;;;11.30;99.90;;;;;;5036765;28;20112;-73
2022/10/03 01:56:40;;;;;;;10.75;1.85;;;11.40;99.90;;;;;;5041840;28;20032;-74
2022/10/03 01:59:21;;;;;;;8.93;1.95;;;11.50;99.90;;;;;;5043916;28;20061;-73
2022/10/03 02:01:56;;;;;;;5.00;1.60;;;11.50;99.90;;;;;;5040207;28;20051;-74
2022/10/03 02:04:49;;;;;;;4.55;1.65;;;11.50;99.90;;;;;;5044163;28;20025;-75
2022/10/03 02:07:51;;;;;;;1.58;0.95;;;11.50;99.90;;;;;;5037251;28;20576;-74
2022/10/03 02:10:23;;;;;;;5.90;1.20;;;11.50;99.90;;;;;;5024909;28;20142;-74
2022/10/03 02:13:39;;;;;;;5.57;1.33;;;11.50;99.90;;;;;;5038417;28;20490;-74
2022/10/03 02:16:10;;;;;;;7.78;1.15;;;11.60;99.90;;;;;;4983590;28;20069;-74
2022/10/03 02:18:50;;;;;;;6.28;1.90;;;11.60;99.90;;;;;;4983086;28;20481;-75
2022/10/03 02:21:22;;;;;;;4.65;1.30;;;11.60;99.90;;;;;;5023784;28;20090;-75
2022/10/03 02:24:00;;;;;;;3.45;1.52;;;11.60;99.90;;;;;;5046118;28;20442;-74
2022/10/03 02:27:12;;;;;;;5.82;1.67;;;11.60;99.90;;;;;;5038997;28;20081;-75
2022/10/03 02:30:07;;;;;;;3.35;1.58;;;11.60;99.90;;;;;;5035157;28;20025;-74
2022/10/03 02:33:10;;;;;;;7.55;1.52;;;11.60;99.90;;;;;;5042815;28;20098;-74
2022/10/03 02:35:50;;;;;;;5.53;1.70;;;11.60;99.90;;;;;;5033705;28;20440;-75
2022/10/03 02:38:53;;;;;;;4.32;1.25;;;11.60;99.90;;;;;;5045399;28;20134;-74
2022/10/03 02:41:46;;;;;;;8.27;1.58;;;11.60;99.90;;;;;;5039883;28;20025;-74
2022/10/03 02:44:47;;;;;;;3.70;1.50;;;11.60;99.90;;;;;;5042889;28;20057;-73
2022/10/03 02:47:31;;;;;;;7.90;1.30;;;11.50;99.90;;;;;;5042668;28;20667;-74
2022/10/03 02:50:28;;;;;;;3.15;1.55;;;11.50;99.90;;;;;;5028755;28;20110;-74
2022/10/03 02:53:32;;;;;;;5.97;1.45;;;11.50;99.90;;;;;;5033591;28;20044;-74
2022/10/03 02:56:24;;;;;;;6.65;1.30;;;11.60;99.90;;;;;;5035316;28;20033;-74
2022/10/03 02:59:26;;;;;;;8.00;1.67;;;11.60;99.90;;;;;;5040341;28;20073;-73
2022/10/03 03:02:30;;;;;;;3.15;0.98;;;11.60;99.90;;;;;;5036914;28;20108;-74
2022/10/03 03:05:27;;;;;;;5.93;2.25;;;11.60;99.90;;;;;;5036342;28;20114;-74
2022/10/03 03:08:08;;;;;;;9.75;1.95;;;11.70;99.90;;;;;;5039632;28;20060;-74
2022/10/03 03:11:01;;;;;;;5.45;1.70;;;11.70;99.90;;;;;;5042998;28;20043;-73
2022/10/03 03:14:07;;;;;;;7.28;1.50;;;11.60;99.90;;;;;;5042460;28;20076;-74
2022/10/03 03:17:02;;;;;;;5.88;1.90;;;11.60;99.90;;;;;;5035439;28;20064;-74
2022/10/03 03:19:46;;;;;;;7.32;1.27;;;11.60;99.90;;;;;;5042171;28;20036;-74
2022/10/03 03:22:45;;;;;;;5.03;1.15;;;11.70;99.90;;;;;;5030967;28;20139;-74
2022/10/03 03:25:29;;;;;;;6.28;1.20;;;11.60;99.90;;;;;;5030162;28;20029;-75
2022/10/03 03:28:18;;;;;;;4.72;1.83;;;11.60;99.90;;;;;;5046273;28;20365;-74
2022/10/03 03:31:10;;;;;;;12.90;1.60;;;11.70;99.90;;;;;;5038009;28;20053;-75
2022/10/03 03:33:42;;;;;;;9.77;1.92;;;11.60;99.90;;;;;;5043456;28;20028;-74
2022/10/03 03:36:32;;;;;;;8.98;1.13;;;11.70;99.90;;;;;;5029936;28;20066;-74
2022/10/03 03:39:27;;;;;;;8.05;2.05;;;11.60;99.90;;;;;;5035126;28;20543;-74
2022/10/03 03:42:03;;;;;;;8.25;1.67;;;11.60;99.90;;;;;;5029389;28;20483;-74
2022/10/03 03:45:01;;;;;;;6.57;1.58;;;11.70;99.90;;;;;;5046645;28;20032;-73
2022/10/03 03:47:45;;;;;;;4.82;1.60;;;11.70;99.90;;;;;;5041892;28;20029;-74
2022/10/03 03:50:44;;;;;;;2.30;1.23;;;11.70;99.90;;;;;;5034412;28;20423;-74
2022/10/03 03:53:40;;;;;;;3.65;1.52;;;11.60;99.90;;;;;;5030089;28;20132;-74
2022/10/03 03:56:06;;;;;;;4.40;1.60;;;11.60;99.90;;;;;;5038275;28;20385;-75
2022/10/03 03:58:44;;;;;;;5.05;1.73;;;11.70;99.90;;;;;;5032743;28;20247;-73
2022/10/03 04:01:23;;;;;;;12.18;1.65;;;11.60;99.90;;;;;;5036028;28;20028;-74
2022/10/03 04:04:20;;;;;;;8.45;1.10;;;11.50;99.90;;;;;;5047981;28;20628;-74
2022/10/03 04:07:05;;;;;;;8.60;1.33;;;11.50;99.90;;;;;;5033002;28;20083;-74
2022/10/03 04:10:02;;;;;;;5.20;1.63;;;11.50;99.90;;;;;;5037587;28;20039;-74
2022/10/03 04:12:58;;;;;;;7.68;1.90;;;11.60;99.90;;;;;;5039764;28;20021;-73
2022/10/03 04:15:58;;;;;;;5.07;1.92;;;11.50;99.90;;;;;;5033169;28;20022;-76
2022/10/03 04:18:59;;;;;;;3.17;1.25;;;11.50;99.90;;;;;;5042408;28;20033;-74
2022/10/03 04:21:55;;;;;;;7.43;2.35;;;11.60;99.90;;;;;;5040316;28;20037;-74
2022/10/03 04:24:58;;;;;;;6.38;1.90;;;11.60;99.90;;;;;;5037293;28;20033;-75
2022/10/03 04:27:53;;;;;;;7.60;1.90;;;11.50;99.90;;;;;;5038648;28;20025;-74
2022/10/03 04:30:28;;;;;;;6.78;1.30;;;11.50;99.90;;;;;;5030305;28;20049;-74
2022/10/03 04:33:16;;;;;;;10.52;1.80;;;11.50;99.90;;;;;;5040383;28;20033;-74
2022/10/03 04:36:06;;;;;;;8.00;1.58;;;11.60;99.90;;;;;;5044808;28;20082;-74
2022/10/03 04:39:07;;;;;;;6.45;1.85;;;11.60;99.90;;;;;;5036770;28;20036;-75
2022/10/03 04:41:52;;;;;;;;;;;11.60;99.90;;;;;;5045005;28;20021;-74
2022/10/03 04:44:34;;;;;;;10.85;2.03;;;11.70;99.90;;;;;;5038493;28;19919;-75
2022/10/03 04:47:12;;;;;;;2.50;1.20;;;11.60;99.90;;;;;;5032070;28;20095;-74
2022/10/03 04:49:51;;;;;;;9.73;1.80;;;11.70;99.90;;;;;;5045686;28;20025;-74
2022/10/03 04:52:32;;;;;;;5.93;2.00;;;11.60;99.90;;;;;;5046127;28;20514;-74
2022/10/03 04:55:16;;;;;;;6.35;1.40;;;11.60;99.90;;;;;;5038102;28;20082;-74
2022/10/03 04:57:54;;;;;;;4.32;1.55;;;11.60;99.90;;;;;;5045005;28;20561;-74
2022/10/03 05:00:28;;;;;;;10.57;1.55;;;11.60;99.90;;;;;;5046598;28;20033;-74
2022/10/03 05:03:00;;;;;;;7.90;1.20;;;11.60;99.90;;;;;;5044335;28;20588;-74
2022/10/03 05:05:49;;;;;;;6.55;1.92;;;11.60;99.90;;;;;;5041798;28;20480;-74
2022/10/03 05:08:21;;;;;;;13.35;1.58;;;11.60;99.90;;;;;;5044633;28;20037;-75
2022/10/03 05:11:14;;;;;;;4.53;1.23;;;11.60;99.90;;;;;;5040514;28;20029;-74
2022/10/03 05:14:07;;;;;;;5.47;1.48;;;11.70;99.90;;;;;;5042956;28;20413;-73
2022/10/03 05:16:42;;;;;;;4.90;1.35;;;11.70;99.90;;;;;;5039673;28;20163;-74
2022/10/03 05:19:36;;;;;;;6.85;1.60;;;11.60;99.90;;;;;;5036187;28;20112;-73
2022/10/03 05:22:22;;;;;;;4.88;1.38;;;11.60;99.90;;;;;;5048303;28;20029;-74
2022/10/03 05:25:10;;;;;;;2.80;1.48;;;11.50;99.90;;;;;;5037129;28;20038;-75
2022/10/03 05:27:47;;;;;;;6.60;1.17;;;11.60;99.90;;;;;;5042869;28;20033;-74
2022/10/03 05:30:32;;;;;;;6.82;1.27;;;11.60;99.90;;;;;;5045269;28;20039;-74
2022/10/03 05:33:38;;;;;;;3.40;1.55;;;11.60;99.90;;;;;;5044281;28;20025;-74
2022/10/03 05:36:23;;;;;;;11.20;2.53;;;11.70;99.90;;;;;;5032605;28;20405;-74
2022/10/03 05:39:19;;;;;;;4.80;0.98;;;11.60;99.90;;;;;;5042735;28;20499;-74
2022/10/03 05:42:15;;;;;;;4.80;1.15;;;11.50;99.90;;;;;;5038068;28;20053;-74
2022/10/03 05:44:56;;;;;;;8.82;1.50;;;11.60;99.90;;;;;;5029055;28;20056;-75
2022/10/03 05:47:46;;;;;;;3.58;1.10;;;11.60;99.90;;;;;;5033155;28;20029;-73
2022/10/03 05:50:37;;;;;;;4.38;1.48;;;11.60;99.90;;;;;;5030717;28;20037;-73
2022/10/03 05:53:35;;;;;;;3.15;1.40;;;11.60;99.90;;;;;;5042696;28;20151;-74
2022/10/03 05:56:07;;;;;;;9.68;1.50;;;11.50;99.90;;;;;;5048709;28;20032;-74
2022/10/03 05:59:05;;;;;;;10.85;1.58;;;11.50;99.90;;;;;;5033360;28;20480;-74
2022/10/03 06:02:05;;;;;;;5.05;1.95;;;11.40;99.90;;;;;;5040199;28;20025;-74
2022/10/03 06:05:09;;;;;;;7.68;2.03;;;11.30;99.90;;;;;;5043091;28;20022;-73
2022/10/03 06:08:03;;;;;;;5.90;1.98;;;11.30;99.90;;;;;;5046626;28;20056;-73
2022/10/03 06:10:42;;;;;;;6.03;1.58;;;11.30;99.90;;;;;;5052455;28;20028;-73
2022/10/03 06:13:29;;;;;;;4.72;1.50;;;11.30;99.90;;;;;;5050636;28;20100;-76
2022/10/03 06:16:23;;;;;;;4.80;1.23;;;11.40;99.90;;;;;;5004259;28;21673;-74
2022/10/03 06:19:08;;;;;;;5.25;2.03;;;11.70;99.90;;;;;;5041326;28;20021;-74
2022/10/03 06:21:36;;;;;;;5.50;1.65;;;11.80;99.90;;;;;;5038924;28;20036;-80
2022/10/03 06:24:37;;;;;;;4.10;1.70;;;12.00;99.90;;;;;;5046822;28;20028;-79
2022/10/03 06:27:24;;;;;;;6.38;1.63;;;12.00;99.90;;;;;;5044329;28;20220;-77
2022/10/03 06:30:17;;;;;;;5.60;1.02;;;11.90;99.90;;;;;;5038570;28;20053;-80
2022/10/03 06:33:01;;;;;;;8.70;1.50;;;12.10;99.90;;;;;;5037407;28;21704;-79
2022/10/03 06:35:56;;;;;;;3.10;1.30;;;12.10;99.90;;;;;;5044448;28;20037;-81
2022/10/03 06:39:05;;;;;;;2.17;1.63;;;12.10;99.90;;;;;;5036748;28;20341;-79
2022/10/03 06:41:53;;;;;;;4.88;1.17;;;12.20;99.90;;;;;;5042308;28;20086;-74
2022/10/03 06:44:51;;;;;;;7.85;1.70;;;12.30;99.90;;;;;;5046048;28;20048;-75
2022/10/03 06:47:52;;;;;;;3.75;1.50;;;12.40;99.90;;;;;;5043115;28;20036;-76
2022/10/03 06:50:45;;;;;;;5.38;1.65;;;12.60;99.90;;;;;;5043323;28;20037;-72
2022/10/03 06:53:32;;;;;;;11.38;1.98;;;12.60;99.90;;;;;;5032999;28;20055;-75
2022/10/03 06:56:18;;;;;;;5.60;1.42;;;12.50;99.90;;;;;;5025994;28;20047;-75
2022/10/03 06:59:10;;;;;;;5.93;1.25;;;12.50;99.90;;;;;;5027974;28;20063;-75
2022/10/03 07:02:05;;;;;;;5.68;1.85;;;12.60;99.90;;;;;;5028097;28;20029;-76
2022/10/03 07:04:49;;;;;;;4.38;1.45;;;12.50;99.90;;;;;;5047598;28;20021;-76
2022/10/03 07:07:48;;;;;;;8.73;1.75;;;12.50;99.90;;;;;;5027972;28;20025;-75
2022/10/03 07:10:28;;;;;;;4.28;1.60;;;12.80;99.90;;;;;;5036043;28;20056;-75
2022/10/03 07:13:25;;;;;;;6.50;1.33;;;13.00;99.90;;;;;;5043045;28;20056;-76
2022/10/03 07:16:08;;;;;;;4.85;1.73;;;13.00;99.90;;;;;;5042458;28;20056;-74
2022/10/03 07:19:03;;;;;;;4.82;1.40;;;13.00;99.90;;;;;;5034582;28;20037;-75
2022/10/03 07:22:07;;;;;;;1.67;1.15;;;13.10;99.90;;;;;;5046494;28;20021;-75
2022/10/03 07:24:56;;;;;;;8.55;1.98;;;13.10;99.90;;;;;;5027902;28;20477;-75
2022/10/03 07:27:46;;;;;;;6.57;1.70;;;13.10;99.90;;;;;;5036950;28;20094;-75
2022/10/03 07:30:23;;;;;;;8.55;1.75;;;13.20;99.90;;;;;;5037965;28;20140;-75
2022/10/03 07:33:23;;;;;;;3.22;1.45;;;13.10;99.90;;;;;;5029988;28;20041;-75
2022/10/03 07:39:38;;;;;;;8.05;2.08;;;13.40;99.90;;;;;;5041939;28;20043;-75
2022/10/03 07:42:46;;;;;;;7.35;1.92;;;13.50;99.90;;;;;;5050995;28;20087;-75
2022/10/03 07:45:36;;;;;;;7.75;1.70;;;13.40;99.90;;;;;;5048329;28;20111;-75
2022/10/03 07:48:32;;;;;;;8.00;1.60;;;13.50;99.90;;;;;;5045313;28;20086;-75
2022/10/03 07:51:23;;;;;;;9.25;1.42;;;13.40;99.90;;;;;;5044957;28;20029;-75
2022/10/03 07:54:12;;;;;;;10.30;1.98;;;13.60;99.90;;;;;;5032001;28;20396;-75
2022/10/03 07:57:02;;;;;;;5.35;1.70;;;13.70;99.90;;;;;;5035506;28;20095;-75
2022/10/03 08:00:00;;;;;;;6.63;2.28;;;13.50;99.90;;;;;;5040154;28;20033;-76
2022/10/03 08:03:11;;;;;;;4.90;1.67;;;13.80;99.90;;;;;;5039445;28;20516;-76
2022/10/03 08:05:53;;;;;;;6.30;1.90;;;13.80;99.90;;;;;;5025164;28;20094;-76
2022/10/03 08:08:49;;;;;;;7.05;2.03;;;13.80;99.90;;;;;;5035441;28;20287;-76
2022/10/03 08:11:24;;;;;;;3.95;1.00;;;13.80;99.90;;;;;;5047138;28;20033;-74
2022/10/03 08:14:20;;;;;;;4.65;1.30;;;13.90;99.90;;;;;;5042331;28;20044;-74
2022/10/03 08:17:13;;;;;;;5.20;1.23;;;13.90;99.90;;;;;;5033875;28;20033;-76
2022/10/03 08:20:17;;;;;;;7.22;1.65;;;14.10;99.90;;;;;;5043671;28;20029;-76
2022/10/03 08:23:15;;;;;;;14.80;4.38;;;14.00;99.90;;;;;;5047402;28;20258;-75
2022/10/03 08:26:14;;;;;;;7.65;2.88;;;14.20;99.90;;;;;;5042635;28;20044;-77
2022/10/03 08:29:16;;;;;;;6.95;1.42;;;14.00;99.90;;;;;;5046628;28;20041;-78
2022/10/03 08:32:00;;;;;;;7.95;1.20;;;14.20;99.90;;;;;;5045858;28;20408;-78
2022/10/03 08:35:08;;;;;;;5.03;2.28;;;14.00;99.90;;;;;;5037494;28;20041;-77
2022/10/03 08:37:52;;;;;;;7.95;1.75;;;14.30;99.90;;;;;;5040839;28;20084;-77
2022/10/03 08:40:39;;;;;;;3.97;1.42;;;14.50;99.90;;;;;;5048789;28;20478;-76
2022/10/03 08:43:36;;;;;;;12.10;1.65;;;14.50;99.90;;;;;;5040750;28;20049;-77
2022/10/03 08:46:31;;;;;;;10.73;1.92;;;14.40;99.90;;;;;;5041048;28;20021;-77
2022/10/03 08:49:12;;;;;;;5.60;1.50;;;14.50;99.90;;;;;;5045113;28;20021;-77
2022/10/03 08:52:20;;;;;;;7.43;2.08;;;14.40;99.90;;;;;;5049082;28;20071;-77
2022/10/03 08:55:18;;;;;;;6.97;1.25;;;14.80;99.90;;;;;;5041646;28;20070;-85
2022/10/03 08:58:10;;;;;;;10.50;1.70;;;15.00;99.90;;;;;;5045043;28;20480;-74
2022/10/03 09:01:07;;;;;;;4.75;1.45;;;15.10;99.90;;;;;;5046073;28;20025;-74
2022/10/03 09:04:18;;;;;;;9.68;1.45;;;15.00;99.90;;;;;;5044867;28;20090;-74
2022/10/03 09:07:02;;;;;;;1.98;1.20;;;14.90;99.90;;;;;;5044268;28;20128;-74
2022/10/03 09:09:42;;;;;;;9.30;1.65;;;14.90;99.90;;;;;;5047272;28;20060;-74
2022/10/03 09:12:30;;;;;;;8.75;1.60;;;15.20;99.90;;;;;;5046066;28;20024;-74
2022/10/03 09:15:27;;;;;;;5.75;1.52;;;15.20;99.90;;;;;;5039799;28;20530;-74
2022/10/03 09:18:20;;;;;;;13.50;1.70;;;15.00;99.90;;;;;;5045664;28;20514;-73
2022/10/03 09:21:29;;;;;;;6.45;2.25;;;14.80;99.90;;;;;;5038515;28;20029;-73
2022/10/03 09:24:18;;;;;;;12.63;2.00;;;14.90;99.90;;;;;;5043444;28;20538;-73
2022/10/03 09:27:08;;;;;;;8.10;1.55;;;15.40;99.90;;;;;;5046084;28;20029;-73
2022/10/03 09:30:13;;;;;;;5.07;2.05;;;16.00;99.90;;;;;;5033840;28;20028;-74
2022/10/03 09:32:57;;;;;;;16.95;2.25;;;16.20;99.90;;;;;;5043928;28;20045;-73
2022/10/03 09:35:37;;;;;;;4.22;1.35;;;16.00;99.90;;;;;;5046380;28;20032;-73
2022/10/03 09:38:33;;;;;;;8.20;3.30;;;16.00;99.90;;;;;;5045511;28;20056;-74
2022/10/03 09:41:32;;;;;;;4.80;2.17;;;16.00;99.90;;;;;;5040867;28;20068;-73
2022/10/03 09:44:35;;;;;;;5.35;1.80;;;16.40;99.90;;;;;;5040125;28;20025;-72
2022/10/03 09:47:38;;;;;;;7.80;2.67;;;16.30;99.90;;;;;;5044583;28;20048;-72
2022/10/03 09:50:28;;;;;;;7.60;2.80;;;16.70;99.90;;;;;;5034983;28;20056;-74
2022/10/03 09:53:30;;;;;;;7.90;1.88;;;16.30;99.90;;;;;;5045778;28;20132;-73
2022/10/03 09:56:05;;;;;;;6.50;1.52;;;15.80;99.90;;;;;;5040018;28;20043;-73
2022/10/03 09:58:42;;;;;;;8.65;2.97;;;15.50;99.90;;;;;;5036501;28;20036;-73
2022/10/03 10:02:05;;;;;;;9.48;2.25;;;15.30;99.90;;;;;;5047035;28;20025;-74
2022/10/03 10:04:58;;;;;;;10.85;2.88;;;15.30;99.90;;;;;;4960439;28;20789;-72
2022/10/03 10:08:00;;;;;;;3.92;1.55;;;15.20;99.90;;;;;;4957415;28;20161;-73
2022/10/03 10:11:01;;;;;;;5.03;2.42;;;15.50;99.90;;;;;;5033461;28;20534;-74
2022/10/03 10:13:48;;;;;;;4.13;1.15;;;15.80;99.90;;;;;;5031429;28;20764;-73
2022/10/03 10:16:44;;;;;;;8.73;1.58;;;16.20;99.90;;;;;;5035596;28;20115;-73
2022/10/03 10:19:18;;;;;;;6.88;1.50;;;16.60;99.90;;;;;;5035165;28;22754;-74
2022/10/03 10:22:16;;;;;;;6.65;1.98;;;16.70;99.90;;;;;;5035871;28;20057;-73
2022/10/03 10:25:00;;;;;;;7.82;2.10;;;16.50;99.90;;;;;;5034252;28;20483;-74
2022/10/03 10:28:11;;;;;;;2.97;1.02;;;16.60;99.60;;;;;;5036541;28;20028;-72
2022/10/03 10:31:13;;;;;;;6.47;2.23;;;16.90;99.90;;;;;;5022649;28;20141;-73
2022/10/03 10:34:12;;;;;;;10.05;3.25;;;17.20;98.40;;;;;;5034164;28;20283;-73
2022/10/03 10:36:56;;;;;;;6.55;2.38;;;17.30;96.10;;;;;;5035664;28;20059;-70
2022/10/03 10:39:53;;;;;;;8.48;2.95;;;16.50;98.00;;;;;;5036825;28;20104;-73
2022/10/03 10:42:53;;;;;;;6.47;2.58;;;16.60;99.10;;;;;;5029240;28;20375;-73
2022/10/03 10:46:05;;;;;;;5.50;2.58;;;16.70;99.20;;;;;;5040267;28;20047;-76
2022/10/03 10:48:33;;;;;;;8.18;1.48;;;17.50;98.00;;;;;;5041168;28;20116;-75
2022/10/03 10:51:32;;;;;;;4.28;0.90;;;18.90;94.00;;;;;;5046038;28;20066;-77
2022/10/03 10:54:20;;;;;;;4.00;0.85;;;19.70;92.10;;;;;;5044613;28;20086;-77
2022/10/03 10:57:43;;;;;;;3.72;1.13;;;19.50;90.70;;;;;;5040917;28;20040;-76
2022/10/03 11:00:25;;;;;;;3.35;1.92;;;18.10;92.70;;;;;;4963381;28;20034;-76
2022/10/03 11:03:34;;;;;;;6.13;2.38;;;17.90;94.40;;;;;;4965113;28;20113;-73
2022/10/03 11:06:21;;;;;;;4.78;1.50;;;18.00;93.10;;;;;;5024099;28;20047;-73
2022/10/03 11:09:18;;;;;;;11.00;1.98;;;17.50;93.90;;;;;;5039028;28;20036;-75
2022/10/03 11:12:15;;;;;;;6.70;1.25;;;20.00;88.10;;;;;;5043318;28;20034;-77
2022/10/03 11:15:02;;;;;;;5.28;1.60;;;18.70;90.60;;;;;;5032292;28;20021;-75
2022/10/03 11:17:55;;;;;;;5.95;1.13;;;18.70;90.40;;;;;;5038712;28;20112;-74
2022/10/03 11:20:43;;;;;;;5.43;1.20;;;18.70;90.90;;;;;;5037318;28;20021;-75
2022/10/03 11:23:50;;;;;;;3.25;1.30;;;18.60;90.90;;;;;;5045917;28;20541;-74
2022/10/03 11:26:21;;;;;;;3.38;2.67;;;18.00;91.50;;;;;;5042937;28;20087;-74
2022/10/03 11:29:17;;;;;;;4.75;1.40;;;17.50;93.30;;;;;;5031434;28;20029;-75
2022/10/03 11:32:39;;;;;;;2.08;1.17;;;16.70;95.80;;;;;;5048176;28;20083;-74
2022/10/03 11:35:23;;;;;;;2.35;1.45;;;16.20;99.90;;;;;;5036551;28;20140;-74
2022/10/03 11:37:56;;;;;;;5.20;1.48;;;15.80;99.90;;;;;;5045176;28;20036;-74
2022/10/03 11:40:33;;;;;;;11.75;1.48;;;15.40;99.90;;;;;;5046356;28;20082;-73
2022/10/03 11:43:36;;;;;;;3.30;1.75;;;16.20;99.90;;;;;;5041775;28;20047;-74
2022/10/03 11:46:21;;;;;;;10.25;3.45;;;19.70;99.90;;;;;;5039938;28;20049;-74
2022/10/03 11:49:06;;;;;;;1.48;1.23;;;21.40;91.40;;;;;;5044441;28;20035;-74
2022/10/03 11:51:52;;;;;;;4.35;1.60;;;20.50;92.70;;;;;;5042037;28;20025;-74
2022/10/03 11:54:27;;;;;;;2.45;1.27;;;20.60;90.00;;;;;;5044666;28;20492;-75
2022/10/03 11:57:08;;;;;;;1.20;0.93;;;20.70;90.20;;;;;;5037986;28;20116;-76
2022/10/03 11:59:52;;;;;;;1.52;0.95;;;19.20;90.90;;;;;;5035778;28;20026;-76
2022/10/03 12:02:33;;;;;;;2.28;0.90;;;18.30;93.20;;;;;;5033470;28;20469;-76
2022/10/03 12:05:06;;;;;;;5.50;0.98;;;17.30;96.40;;;;;;5041612;28;20021;-75
2022/10/03 12:10:56;;;;;;;1.70;0.90;;;17.40;98.00;;;;;;5041788;28;20028;-75
2022/10/03 12:13:58;;;;;;;2.42;0.98;;;18.10;95.70;;;;;;5043571;28;20026;-75
2022/10/03 12:16:28;;;;;;;3.20;1.25;;;18.60;94.90;;;;;;5039144;28;20044;-75
2022/10/03 12:19:09;;;;;;;2.55;1.15;;;19.30;92.60;;;;;;5038077;28;20558;-75
2022/10/03 12:21:51;;;;;;;9.35;1.13;;;20.30;90.90;;;;;;5044739;28;20060;-76
2022/10/03 12:24:26;;;;;;;2.03;0.98;;;25.50;68.50;;;;;;5034267;28;20104;-74
2022/10/03 12:26:54;;;;;;;5.15;0.98;;;23.20;69.20;;;;;;5040180;28;20139;-76
2022/10/03 12:29:23;;;;;;;9.70;1.67;;;24.40;67.70;;;;;;5034817;28;20021;-75
2022/10/03 12:32:11;;;;;;;4.63;1.30;;;23.70;67.50;;;;;;5041425;28;20385;-76
2022/10/03 12:34:58;;;;;;;5.65;1.58;;;21.70;74.40;;;;;;5034546;28;20120;-75
2022/10/03 12:37:32;;;;;;;3.20;1.38;;;21.50;77.90;;;;;;5039030;28;20071;-74
2022/10/03 12:40:26;;;;;;;5.68;1.65;;;20.40;81.70;;;;;;5039078;28;20025;-74
2022/10/03 12:43:24;;;;;;;5.18;1.10;;;19.30;83.80;;;;;;5038566;28;20029;-74
2022/10/03 12:46:00;;;;;;;2.83;0.95;;;18.40;89.90;;;;;;5039094;28;20030;-75
2022/10/03 12:48:47;;;;;;;3.22;0.88;;;18.50;90.60;;;;;;5042574;28;20056;-75
2022/10/03 12:51:30;;;;;;;3.53;1.15;;;19.20;90.10;;;;;;5044377;28;20068;-75
2022/10/03 12:54:19;;;;;;;4.88;1.40;;;21.20;77.20;;;;;;5043815;28;20045;-74
2022/10/03 12:57:13;;;;;;;3.47;1.25;;;23.80;68.80;;;;;;5042782;28;20029;-74
2022/10/03 12:59:46;;;;;;;3.92;1.08;;;26.40;58.80;;;;;;5042196;28;20556;-75
2022/10/03 13:02:35;;;;;;;4.45;1.00;;;23.00;68.80;;;;;;5041043;28;20037;-73
2022/10/03 13:05:32;;;;;;;3.13;1.30;;;21.80;72.10;;;;;;5035861;28;20029;-73
2022/10/03 13:08:16;;;;;;;3.95;1.05;;;23.60;71.90;;;;;;5046817;28;20044;-74
2022/10/03 13:10:52;;;;;;;2.95;1.30;;;30.40;53.00;;;;;;5046780;28;20040;-75
2022/10/03 13:13:47;;;;;;;5.05;1.17;;;29.30;51.50;;;;;;5039918;28;20495;-75
2022/10/03 13:16:33;;;;;;;1.77;0.73;;;31.90;48.00;;;;;;5045762;28;20087;-75
2022/10/03 13:19:18;;;;;;;5.97;0.77;;;27.00;53.00;;;;;;5044632;28;20064;-75
2022/10/03 13:21:43;;;;;;;2.65;1.20;;;24.10;60.40;;;;;;5042677;28;20499;-73
2022/10/03 13:24:28;;;;;;;3.67;1.00;;;21.90;67.20;;;;;;5043979;28;20043;-74
2022/10/03 13:27:12;;;;;;;1.92;0.70;;;22.70;66.70;;;;;;5042028;28;20039;-73
2022/10/03 13:29:53;;;;;;;1.92;0.80;;;20.90;68.70;;;;;;5046095;28;20025;-73
2022/10/03 13:32:37;;;;;;;2.75;0.80;;;19.90;75.50;;;;;;5032408;28;20053;-72
2022/10/03 13:36:01;;;;;;;4.82;0.85;;;19.40;77.10;;;;;;5039143;28;20033;-75
2022/10/03 13:38:33;;;;;;;1.30;1.00;;;20.40;75.60;;;;;;4979935;28;20035;-74
2022/10/03 13:41:24;;;;;;;1.45;0.77;;;19.50;77.90;;;;;;4981353;28;20037;-74
2022/10/03 13:44:12;;;;;;;4.30;0.80;;;18.90;80.70;;;;;;5024065;28;20128;-75
2022/10/03 13:46:52;;;;;;;2.50;1.10;;;21.30;75.30;;;;;;5041691;28;20061;-75
2022/10/03 13:49:33;;;;;;;2.50;1.08;;;25.10;63.60;;;;;;5042273;28;22444;-75
2022/10/03 13:52:36;;;;;;;3.53;1.20;;;27.90;54.30;;;;;;5041202;28;20111;-75
2022/10/03 13:55:25;;;;;;;6.10;1.17;;;31.40;46.80;;;;;;5035933;28;20037;-75
2022/10/03 13:58:12;;;;;;;2.78;1.05;;;32.50;45.40;;;;;;5035052;28;20163;-75
2022/10/03 14:01:05;;;;;;;4.82;1.10;;;33.50;43.80;;;;;;5039816;28;20029;-75
2022/10/03 14:03:44;;;;;;;1.60;0.95;;;33.80;42.30;;;;;;5039597;28;20044;-71
2022/10/03 14:06:30;;;;;;;3.72;1.15;;;32.60;41.10;;;;;;5031919;28;20121;-72
2022/10/03 14:09:23;;;;;;;2.97;0.70;;;30.00;45.50;;;;;;5047178;28;20034;-74
2022/10/03 14:12:03;;;;;;;0.70;0.70;;;29.60;46.20;;;;;;5042147;28;20061;-72
2022/10/03 14:14:51;;;;;;;3.72;0.77;;;31.30;46.20;;;;;;5038621;28;20040;-76
2022/10/03 14:17:38;;;;;;;4.30;1.17;;;32.10;43.60;;;;;;5039835;28;20586;-71
2022/10/03 14:20:20;;;;;;;1.85;0.68;;;31.60;42.80;;;;;;5044222;28;20048;-72
2022/10/03 14:23:20;;;;;;;4.15;1.13;;;30.50;44.90;;;;;;5034157;28;20148;-72
2022/10/03 14:26:14;;;;;;;1.85;0.70;;;24.50;55.00;;;;;;5040182;28;20036;-75
2022/10/03 14:28:44;;;;;;;3.33;1.20;;;21.50;62.60;;;;;;5033457;28;20450;-75
2022/10/03 14:31:32;;;;;;;5.13;1.27;;;19.10;72.80;;;;;;5042170;28;20124;-73
2022/10/03 14:34:27;;;;;;;4.88;1.33;;;18.30;78.20;;;;;;5036682;28;20112;-70
2022/10/03 14:37:17;;;;;;;3.65;1.40;;;20.70;74.40;;;;;;5037847;28;20041;-72
2022/10/03 14:40:13;;;;;;;2.63;1.15;;;23.40;60.50;;;;;;5041546;28;20385;-76
2022/10/03 14:43:23;;;;;;;1.92;0.82;;;21.70;65.40;;;;;;5040147;28;20040;-75
2022/10/03 14:45:52;;;;;;;4.55;1.13;;;19.60;72.30;;;;;;5041165;28;20032;-75
2022/10/03 14:48:34;;;;;;;4.53;1.05;;;19.20;76.60;;;;;;5040256;28;20029;-75